sensor_id;sensor_type;location;lat;lon;timestamp;pressure;altitude;pressure_sealevel;temperature
71081;BMP180;58740;50.672;18.690;2023-10-08T00:00:48;98752.60;;;13.70
71081;BMP180;58740;50.672;18.690;2023-10-08T00:03:35;98757.80;;;13.70
71081;BMP180;58740;50.672;18.690;2023-10-08T00:06:05;98758.60;;;13.66
71081;BMP180;58740;50.672;18.690;2023-10-08T00:08:38;98773.00;;;13.60
71081;BMP180;58740;50.672;18.690;2023-10-08T00:11:05;98781.20;;;13.60
71081;BMP180;58740;50.672;18.690;2023-10-08T00:13:37;98784.00;;;13.60
71081;BMP180;58740;50.672;18.690;2023-10-08T00:16:13;98783.60;;;13.58
71081;BMP180;58740;50.672;18.690;2023-10-08T00:18:44;98781.40;;;13.50
71081;BMP180;58740;50.672;18.690;2023-10-08T00:21:19;98780.80;;;13.50
71081;BMP180;58740;50.672;18.690;2023-10-08T00:23:52;98779.40;;;13.50
71081;BMP180;58740;50.672;18.690;2023-10-08T00:26:20;98774.60;;;13.50
71081;BMP180;58740;50.672;18.690;2023-10-08T00:29:04;98769.40;;;13.50
71081;BMP180;58740;50.672;18.690;2023-10-08T00:31:44;98760.00;;;13.40
71081;BMP180;58740;50.672;18.690;2023-10-08T00:34:17;98776.80;;;13.40
71081;BMP180;58740;50.672;18.690;2023-10-08T00:36:47;98796.20;;;13.30
71081;BMP180;58740;50.672;18.690;2023-10-08T00:39:14;98778.40;;;13.30
71081;BMP180;58740;50.672;18.690;2023-10-08T00:41:44;98772.80;;;13.30
71081;BMP180;58740;50.672;18.690;2023-10-08T00:44:13;98777.80;;;13.30
71081;BMP180;58740;50.672;18.690;2023-10-08T00:46:43;98781.00;;;13.30
71081;BMP180;58740;50.672;18.690;2023-10-08T00:49:22;98784.40;;;13.20
71081;BMP180;58740;50.672;18.690;2023-10-08T00:51:55;98789.20;;;13.20
71081;BMP180;58740;50.672;18.690;2023-10-08T00:54:36;98789.20;;;13.18
71081;BMP180;58740;50.672;18.690;2023-10-08T00:57:29;98804.80;;;13.10
71081;BMP180;58740;50.672;18.690;2023-10-08T00:59:56;98800.20;;;13.10
71081;BMP180;58740;50.672;18.690;2023-10-08T01:02:27;98797.40;;;13.10
71081;BMP180;58740;50.672;18.690;2023-10-08T01:04:56;98793.60;;;13.10
71081;BMP180;58740;50.672;18.690;2023-10-08T01:07:25;98803.00;;;13.10
71081;BMP180;58740;50.672;18.690;2023-10-08T01:09:51;98803.40;;;13.10
71081;BMP180;58740;50.672;18.690;2023-10-08T01:12:20;98815.40;;;13.10
71081;BMP180;58740;50.672;18.690;2023-10-08T01:14:54;98821.40;;;13.10
71081;BMP180;58740;50.672;18.690;2023-10-08T01:17:22;98818.20;;;13.02
71081;BMP180;58740;50.672;18.690;2023-10-08T01:19:53;98811.00;;;13.00
71081;BMP180;58740;50.672;18.690;2023-10-08T01:22:26;98804.20;;;13.00
71081;BMP180;58740;50.672;18.690;2023-10-08T01:24:55;98793.20;;;12.90
71081;BMP180;58740;50.672;18.690;2023-10-08T01:27:22;98775.80;;;12.90
71081;BMP180;58740;50.672;18.690;2023-10-08T01:29:51;98768.20;;;12.90
71081;BMP180;58740;50.672;18.690;2023-10-08T01:32:20;98768.20;;;12.90
71081;BMP180;58740;50.672;18.690;2023-10-08T01:34:48;98772.80;;;12.90
71081;BMP180;58740;50.672;18.690;2023-10-08T01:37:16;98789.60;;;12.86
71081;BMP180;58740;50.672;18.690;2023-10-08T01:39:46;98790.80;;;12.80
71081;BMP180;58740;50.672;18.690;2023-10-08T01:42:16;98787.80;;;12.80
71081;BMP180;58740;50.672;18.690;2023-10-08T01:44:48;98787.00;;;12.70
71081;BMP180;58740;50.672;18.690;2023-10-08T01:47:17;98783.40;;;12.60
71081;BMP180;58740;50.672;18.690;2023-10-08T01:49:44;98803.20;;;12.60
71081;BMP180;58740;50.672;18.690;2023-10-08T01:52:13;98820.40;;;12.60
71081;BMP180;58740;50.672;18.690;2023-10-08T01:54:49;98817.80;;;12.50
71081;BMP180;58740;50.672;18.690;2023-10-08T01:57:16;98823.40;;;12.50
71081;BMP180;58740;50.672;18.690;2023-10-08T01:59:43;98820.80;;;12.40
71081;BMP180;58740;50.672;18.690;2023-10-08T02:02:10;98813.60;;;12.40
71081;BMP180;58740;50.672;18.690;2023-10-08T02:04:36;98792.80;;;12.30
71081;BMP180;58740;50.672;18.690;2023-10-08T02:07:04;98789.60;;;12.30
71081;BMP180;58740;50.672;18.690;2023-10-08T02:09:34;98791.60;;;12.30
71081;BMP180;58740;50.672;18.690;2023-10-08T02:12:00;98792.60;;;12.26
71081;BMP180;58740;50.672;18.690;2023-10-08T02:14:27;98797.00;;;12.26
71081;BMP180;58740;50.672;18.690;2023-10-08T02:16:58;98804.60;;;12.22
71081;BMP180;58740;50.672;18.690;2023-10-08T02:19:30;98808.40;;;12.20
71081;BMP180;58740;50.672;18.690;2023-10-08T02:21:58;98813.20;;;12.20
71081;BMP180;58740;50.672;18.690;2023-10-08T02:24:25;98819.20;;;12.18
71081;BMP180;58740;50.672;18.690;2023-10-08T02:26:53;98813.80;;;12.10
71081;BMP180;58740;50.672;18.690;2023-10-08T02:29:29;98815.20;;;12.10
71081;BMP180;58740;50.672;18.690;2023-10-08T02:31:57;98822.60;;;12.10
71081;BMP180;58740;50.672;18.690;2023-10-08T02:34:23;98823.20;;;12.12
71081;BMP180;58740;50.672;18.690;2023-10-08T02:36:50;98826.40;;;12.10
71081;BMP180;58740;50.672;18.690;2023-10-08T02:39:19;98831.80;;;12.10
71081;BMP180;58740;50.672;18.690;2023-10-08T02:41:52;98832.40;;;12.10
71081;BMP180;58740;50.672;18.690;2023-10-08T02:44:21;98827.20;;;12.10
71081;BMP180;58740;50.672;18.690;2023-10-08T02:46:49;98824.20;;;12.10
71081;BMP180;58740;50.672;18.690;2023-10-08T02:49:20;98831.80;;;12.10
71081;BMP180;58740;50.672;18.690;2023-10-08T02:51:52;98828.60;;;12.10
71081;BMP180;58740;50.672;18.690;2023-10-08T02:54:21;98843.40;;;12.10
71081;BMP180;58740;50.672;18.690;2023-10-08T02:56:58;98853.80;;;12.10
71081;BMP180;58740;50.672;18.690;2023-10-08T02:59:30;98859.40;;;12.10
71081;BMP180;58740;50.672;18.690;2023-10-08T03:02:10;98859.00;;;12.10
71081;BMP180;58740;50.672;18.690;2023-10-08T03:04:55;98849.40;;;12.10
71081;BMP180;58740;50.672;18.690;2023-10-08T03:07:21;98864.40;;;12.10
71081;BMP180;58740;50.672;18.690;2023-10-08T03:09:52;98874.60;;;12.10
71081;BMP180;58740;50.672;18.690;2023-10-08T03:12:30;98879.60;;;12.12
71081;BMP180;58740;50.672;18.690;2023-10-08T03:14:59;98879.40;;;12.12
71081;BMP180;58740;50.672;18.690;2023-10-08T03:17:45;98890.60;;;12.18
71081;BMP180;58740;50.672;18.690;2023-10-08T03:20:18;98888.80;;;12.20
71081;BMP180;58740;50.672;18.690;2023-10-08T03:23:07;98899.20;;;12.20
71081;BMP180;58740;50.672;18.690;2023-10-08T03:25:39;98905.60;;;12.20
71081;BMP180;58740;50.672;18.690;2023-10-08T03:28:09;98913.80;;;12.20
71081;BMP180;58740;50.672;18.690;2023-10-08T03:30:35;98923.20;;;12.20
71081;BMP180;58740;50.672;18.690;2023-10-08T03:33:14;98931.80;;;12.20
71081;BMP180;58740;50.672;18.690;2023-10-08T03:35:49;98930.40;;;12.20
71081;BMP180;58740;50.672;18.690;2023-10-08T03:38:21;98926.80;;;12.20
71081;BMP180;58740;50.672;18.690;2023-10-08T03:41:11;98927.60;;;12.20
71081;BMP180;58740;50.672;18.690;2023-10-08T03:43:43;98932.40;;;12.20
71081;BMP180;58740;50.672;18.690;2023-10-08T03:46:16;98933.80;;;12.12
71081;BMP180;58740;50.672;18.690;2023-10-08T03:48:42;98947.40;;;12.10
71081;BMP180;58740;50.672;18.690;2023-10-08T03:51:12;98946.80;;;12.10
71081;BMP180;58740;50.672;18.690;2023-10-08T03:53:40;98948.60;;;12.10
71081;BMP180;58740;50.672;18.690;2023-10-08T03:56:27;98953.80;;;12.10
71081;BMP180;58740;50.672;18.690;2023-10-08T03:58:57;98963.20;;;12.10
71081;BMP180;58740;50.672;18.690;2023-10-08T04:01:26;98974.00;;;12.00
71081;BMP180;58740;50.672;18.690;2023-10-08T04:03:58;98974.20;;;12.06
71081;BMP180;58740;50.672;18.690;2023-10-08T04:06:27;98968.80;;;12.00
71081;BMP180;58740;50.672;18.690;2023-10-08T04:09:00;98963.60;;;12.00
71081;BMP180;58740;50.672;18.690;2023-10-08T04:11:47;98960.20;;;12.00
71081;BMP180;58740;50.672;18.690;2023-10-08T04:14:26;98952.40;;;12.00
71081;BMP180;58740;50.672;18.690;2023-10-08T04:16:54;98946.80;;;11.96
71081;BMP180;58740;50.672;18.690;2023-10-08T04:19:22;98946.00;;;11.90
71081;BMP180;58740;50.672;18.690;2023-10-08T04:21:54;98957.40;;;11.92
71081;BMP180;58740;50.672;18.690;2023-10-08T04:24:26;98957.60;;;11.96
71081;BMP180;58740;50.672;18.690;2023-10-08T04:27:00;98969.20;;;11.92
71081;BMP180;58740;50.672;18.690;2023-10-08T04:29:32;98994.80;;;11.90
71081;BMP180;58740;50.672;18.690;2023-10-08T04:31:59;99015.20;;;11.90
71081;BMP180;58740;50.672;18.690;2023-10-08T04:34:38;99013.80;;;11.90
71081;BMP180;58740;50.672;18.690;2023-10-08T04:37:04;99022.60;;;11.90
71081;BMP180;58740;50.672;18.690;2023-10-08T04:39:40;99023.80;;;11.90
71081;BMP180;58740;50.672;18.690;2023-10-08T04:42:13;99027.60;;;11.90
71081;BMP180;58740;50.672;18.690;2023-10-08T04:44:40;99036.00;;;11.90
71081;BMP180;58740;50.672;18.690;2023-10-08T04:47:07;99052.40;;;11.90
71081;BMP180;58740;50.672;18.690;2023-10-08T04:49:35;99058.20;;;11.90
71081;BMP180;58740;50.672;18.690;2023-10-08T04:52:11;99044.00;;;11.90
71081;BMP180;58740;50.672;18.690;2023-10-08T04:54:42;99033.80;;;11.90
71081;BMP180;58740;50.672;18.690;2023-10-08T04:57:19;99035.00;;;11.90
71081;BMP180;58740;50.672;18.690;2023-10-08T04:59:49;99029.60;;;11.90
71081;BMP180;58740;50.672;18.690;2023-10-08T05:02:23;99001.20;;;11.90
71081;BMP180;58740;50.672;18.690;2023-10-08T05:05:01;99000.20;;;11.90
71081;BMP180;58740;50.672;18.690;2023-10-08T05:07:49;99016.20;;;11.90
71081;BMP180;58740;50.672;18.690;2023-10-08T05:10:15;99031.40;;;11.90
71081;BMP180;58740;50.672;18.690;2023-10-08T05:13:02;99033.20;;;11.82
71081;BMP180;58740;50.672;18.690;2023-10-08T05:15:32;99038.40;;;11.82
71081;BMP180;58740;50.672;18.690;2023-10-08T05:18:13;99026.00;;;11.80
71081;BMP180;58740;50.672;18.690;2023-10-08T05:20:50;99045.40;;;11.80
71081;BMP180;58740;50.672;18.690;2023-10-08T05:23:19;99052.00;;;11.76
71081;BMP180;58740;50.672;18.690;2023-10-08T05:25:57;99059.00;;;11.80
71081;BMP180;58740;50.672;18.690;2023-10-08T05:28:24;99050.00;;;11.80
71081;BMP180;58740;50.672;18.690;2023-10-08T05:30:52;99064.20;;;11.74
71081;BMP180;58740;50.672;18.690;2023-10-08T05:33:37;99079.60;;;11.70
71081;BMP180;58740;50.672;18.690;2023-10-08T05:36:22;99084.80;;;11.70
71081;BMP180;58740;50.672;18.690;2023-10-08T05:39:03;99080.20;;;11.70
71081;BMP180;58740;50.672;18.690;2023-10-08T05:41:48;99077.20;;;11.70
71081;BMP180;58740;50.672;18.690;2023-10-08T05:44:18;99092.00;;;11.70
71081;BMP180;58740;50.672;18.690;2023-10-08T05:46:45;99111.80;;;11.70
71081;BMP180;58740;50.672;18.690;2023-10-08T05:49:37;99099.60;;;11.70
71081;BMP180;58740;50.672;18.690;2023-10-08T05:52:20;99111.60;;;11.70
71081;BMP180;58740;50.672;18.690;2023-10-08T05:55:07;99118.20;;;11.70
71081;BMP180;58740;50.672;18.690;2023-10-08T05:57:44;99126.20;;;11.66
71081;BMP180;58740;50.672;18.690;2023-10-08T06:00:18;99125.00;;;11.60
71081;BMP180;58740;50.672;18.690;2023-10-08T06:03:04;99139.80;;;11.60
71081;BMP180;58740;50.672;18.690;2023-10-08T06:05:36;99134.60;;;11.60
71081;BMP180;58740;50.672;18.690;2023-10-08T06:08:09;99134.20;;;11.60
71081;BMP180;58740;50.672;18.690;2023-10-08T06:10:41;99138.00;;;11.60
71081;BMP180;58740;50.672;18.690;2023-10-08T06:13:10;99137.20;;;11.60
71081;BMP180;58740;50.672;18.690;2023-10-08T06:15:47;99155.80;;;11.60
71081;BMP180;58740;50.672;18.690;2023-10-08T06:18:18;99161.40;;;11.50
71081;BMP180;58740;50.672;18.690;2023-10-08T06:20:46;99168.00;;;11.50
71081;BMP180;58740;50.672;18.690;2023-10-08T06:23:16;99177.80;;;11.50
71081;BMP180;58740;50.672;18.690;2023-10-08T06:25:47;99191.80;;;11.50
71081;BMP180;58740;50.672;18.690;2023-10-08T06:28:16;99202.60;;;11.50
71081;BMP180;58740;50.672;18.690;2023-10-08T06:30:47;99214.40;;;11.50
71081;BMP180;58740;50.672;18.690;2023-10-08T06:33:15;99216.60;;;11.50
71081;BMP180;58740;50.672;18.690;2023-10-08T06:35:42;99230.20;;;11.50
71081;BMP180;58740;50.672;18.690;2023-10-08T06:38:33;99235.40;;;11.50
71081;BMP180;58740;50.672;18.690;2023-10-08T06:41:02;99230.40;;;11.50
71081;BMP180;58740;50.672;18.690;2023-10-08T06:44:10;99239.40;;;11.50
71081;BMP180;58740;50.672;18.690;2023-10-08T06:46:41;99241.40;;;11.50
71081;BMP180;58740;50.672;18.690;2023-10-08T06:49:09;99253.00;;;11.50
71081;BMP180;58740;50.672;18.690;2023-10-08T06:51:42;99241.00;;;11.50
71081;BMP180;58740;50.672;18.690;2023-10-08T06:54:10;99247.40;;;11.50
71081;BMP180;58740;50.672;18.690;2023-10-08T06:56:40;99249.20;;;11.58
71081;BMP180;58740;50.672;18.690;2023-10-08T06:59:13;99246.20;;;11.60
71081;BMP180;58740;50.672;18.690;2023-10-08T07:01:40;99253.00;;;11.70
71081;BMP180;58740;50.672;18.690;2023-10-08T07:04:13;99259.20;;;11.70
71081;BMP180;58740;50.672;18.690;2023-10-08T07:06:41;99258.80;;;11.80
71081;BMP180;58740;50.672;18.690;2023-10-08T07:09:10;99267.60;;;11.80
71081;BMP180;58740;50.672;18.690;2023-10-08T07:11:56;99266.40;;;11.82
71081;BMP180;58740;50.672;18.690;2023-10-08T07:14:28;99271.20;;;11.88
71081;BMP180;58740;50.672;18.690;2023-10-08T07:17:00;99279.00;;;11.90
71081;BMP180;58740;50.672;18.690;2023-10-08T07:19:30;99292.80;;;11.90
71081;BMP180;58740;50.672;18.690;2023-10-08T07:22:05;99286.60;;;11.92
71081;BMP180;58740;50.672;18.690;2023-10-08T07:24:54;99287.60;;;12.00
71081;BMP180;58740;50.672;18.690;2023-10-08T07:27:21;99295.00;;;12.00
71081;BMP180;58740;50.672;18.690;2023-10-08T07:29:56;99305.40;;;12.00
71081;BMP180;58740;50.672;18.690;2023-10-08T07:32:25;99305.00;;;12.00
71081;BMP180;58740;50.672;18.690;2023-10-08T07:34:51;99312.00;;;12.00
71081;BMP180;58740;50.672;18.690;2023-10-08T07:37:23;99320.20;;;12.06
71081;BMP180;58740;50.672;18.690;2023-10-08T07:39:52;99320.00;;;12.10
71081;BMP180;58740;50.672;18.690;2023-10-08T07:42:21;99323.00;;;12.10
71081;BMP180;58740;50.672;18.690;2023-10-08T07:44:48;99322.60;;;12.10
71081;BMP180;58740;50.672;18.690;2023-10-08T07:47:16;99326.60;;;12.10
71081;BMP180;58740;50.672;18.690;2023-10-08T07:49:42;99328.20;;;12.10
71081;BMP180;58740;50.672;18.690;2023-10-08T07:52:12;99344.60;;;12.10
71081;BMP180;58740;50.672;18.690;2023-10-08T07:54:42;99346.00;;;12.10
71081;BMP180;58740;50.672;18.690;2023-10-08T07:57:08;99350.00;;;12.10
71081;BMP180;58740;50.672;18.690;2023-10-08T07:59:52;99354.60;;;12.20
71081;BMP180;58740;50.672;18.690;2023-10-08T08:02:21;99361.60;;;12.30
71081;BMP180;58740;50.672;18.690;2023-10-08T08:04:53;99370.60;;;12.20
71081;BMP180;58740;50.672;18.690;2023-10-08T08:07:21;99379.40;;;12.10
71081;BMP180;58740;50.672;18.690;2023-10-08T08:09:52;99376.20;;;12.00
71081;BMP180;58740;50.672;18.690;2023-10-08T08:12:26;99371.80;;;12.00
71081;BMP180;58740;50.672;18.690;2023-10-08T08:14:54;99369.60;;;12.00
71081;BMP180;58740;50.672;18.690;2023-10-08T08:17:21;99374.20;;;12.00
71081;BMP180;58740;50.672;18.690;2023-10-08T08:19:51;99377.00;;;12.00
71081;BMP180;58740;50.672;18.690;2023-10-08T08:22:20;99376.80;;;12.00
71081;BMP180;58740;50.672;18.690;2023-10-08T08:24:52;99370.60;;;12.06
71081;BMP180;58740;50.672;18.690;2023-10-08T08:27:25;99371.80;;;12.08
71081;BMP180;58740;50.672;18.690;2023-10-08T08:29:58;99379.80;;;12.00
71081;BMP180;58740;50.672;18.690;2023-10-08T08:32:39;99389.80;;;12.10
71081;BMP180;58740;50.672;18.690;2023-10-08T08:35:08;99385.20;;;12.10
71081;BMP180;58740;50.672;18.690;2023-10-08T08:37:37;99391.60;;;12.10
71081;BMP180;58740;50.672;18.690;2023-10-08T08:40:05;99398.00;;;12.10
71081;BMP180;58740;50.672;18.690;2023-10-08T08:42:51;99406.60;;;12.02
71081;BMP180;58740;50.672;18.690;2023-10-08T08:45:24;99405.60;;;11.90
71081;BMP180;58740;50.672;18.690;2023-10-08T08:47:52;99408.20;;;11.90
71081;BMP180;58740;50.672;18.690;2023-10-08T08:50:20;99409.60;;;11.90
71081;BMP180;58740;50.672;18.690;2023-10-08T08:52:47;99408.40;;;12.00
71081;BMP180;58740;50.672;18.690;2023-10-08T08:55:14;99409.80;;;12.06
71081;BMP180;58740;50.672;18.690;2023-10-08T08:57:47;99413.00;;;12.10
71081;BMP180;58740;50.672;18.690;2023-10-08T09:00:17;99416.00;;;12.00
71081;BMP180;58740;50.672;18.690;2023-10-08T09:02:45;99425.00;;;11.90
71081;BMP180;58740;50.672;18.690;2023-10-08T09:05:13;99426.00;;;11.90
71081;BMP180;58740;50.672;18.690;2023-10-08T09:08:03;99423.80;;;11.90
71081;BMP180;58740;50.672;18.690;2023-10-08T09:10:34;99424.80;;;11.90
71081;BMP180;58740;50.672;18.690;2023-10-08T09:13:06;99427.40;;;11.90
71081;BMP180;58740;50.672;18.690;2023-10-08T09:15:37;99434.20;;;11.90
71081;BMP180;58740;50.672;18.690;2023-10-08T09:18:04;99440.00;;;11.90
71081;BMP180;58740;50.672;18.690;2023-10-08T09:20:37;99440.80;;;11.90
71081;BMP180;58740;50.672;18.690;2023-10-08T09:23:16;99433.60;;;12.00
71081;BMP180;58740;50.672;18.690;2023-10-08T09:25:48;99446.00;;;12.00
71081;BMP180;58740;50.672;18.690;2023-10-08T09:28:19;99446.00;;;12.10
71081;BMP180;58740;50.672;18.690;2023-10-08T09:30:48;99442.00;;;12.10
71081;BMP180;58740;50.672;18.690;2023-10-08T09:33:15;99444.80;;;12.10
71081;BMP180;58740;50.672;18.690;2023-10-08T09:35:46;99449.60;;;12.18
71081;BMP180;58740;50.672;18.690;2023-10-08T09:38:12;99455.80;;;12.20
71081;BMP180;58740;50.672;18.690;2023-10-08T09:40:40;99454.20;;;12.30
71081;BMP180;58740;50.672;18.690;2023-10-08T09:43:11;99454.40;;;12.30
71081;BMP180;58740;50.672;18.690;2023-10-08T09:45:47;99461.80;;;12.30
71081;BMP180;58740;50.672;18.690;2023-10-08T09:48:20;99464.40;;;12.30
71081;BMP180;58740;50.672;18.690;2023-10-08T09:50:52;99460.80;;;12.30
71081;BMP180;58740;50.672;18.690;2023-10-08T09:53:43;99470.40;;;12.40
71081;BMP180;58740;50.672;18.690;2023-10-08T09:56:15;99471.00;;;12.40
71081;BMP180;58740;50.672;18.690;2023-10-08T09:58:45;99470.60;;;12.40
71081;BMP180;58740;50.672;18.690;2023-10-08T10:01:18;99480.80;;;12.40
71081;BMP180;58740;50.672;18.690;2023-10-08T10:03:46;99475.00;;;12.40
71081;BMP180;58740;50.672;18.690;2023-10-08T10:06:18;99477.40;;;12.40
71081;BMP180;58740;50.672;18.690;2023-10-08T10:08:48;99479.60;;;12.42
71081;BMP180;58740;50.672;18.690;2023-10-08T10:11:15;99493.80;;;12.50
71081;BMP180;58740;50.672;18.690;2023-10-08T10:13:50;99483.00;;;12.50
71081;BMP180;58740;50.672;18.690;2023-10-08T10:16:21;99492.20;;;12.40
71081;BMP180;58740;50.672;18.690;2023-10-08T10:18:55;99501.20;;;12.40
71081;BMP180;58740;50.672;18.690;2023-10-08T10:21:33;99490.40;;;12.40
71081;BMP180;58740;50.672;18.690;2023-10-08T10:24:00;99501.20;;;12.40
71081;BMP180;58740;50.672;18.690;2023-10-08T10:26:35;99507.40;;;12.44
71081;BMP180;58740;50.672;18.690;2023-10-08T10:31:39;99506.00;;;12.50
71081;BMP180;58740;50.672;18.690;2023-10-08T10:34:16;99514.20;;;12.50
71081;BMP180;58740;50.672;18.690;2023-10-08T10:36:46;99514.40;;;12.48
71081;BMP180;58740;50.672;18.690;2023-10-08T10:39:17;99514.40;;;12.40
71081;BMP180;58740;50.672;18.690;2023-10-08T10:41:54;99515.20;;;12.40
71081;BMP180;58740;50.672;18.690;2023-10-08T10:44:24;99515.20;;;12.34
71081;BMP180;58740;50.672;18.690;2023-10-08T10:46:51;99503.00;;;12.38
71081;BMP180;58740;50.672;18.690;2023-10-08T10:49:19;99519.80;;;12.38
71081;BMP180;58740;50.672;18.690;2023-10-08T10:51:57;99514.20;;;12.40
71081;BMP180;58740;50.672;18.690;2023-10-08T10:54:24;99518.80;;;12.40
71081;BMP180;58740;50.672;18.690;2023-10-08T10:56:53;99513.60;;;12.40
71081;BMP180;58740;50.672;18.690;2023-10-08T10:59:33;99515.40;;;12.30
71081;BMP180;58740;50.672;18.690;2023-10-08T11:02:09;99529.00;;;12.30
71081;BMP180;58740;50.672;18.690;2023-10-08T11:04:47;99531.20;;;12.30
71081;BMP180;58740;50.672;18.690;2023-10-08T11:07:20;99521.20;;;12.30
71081;BMP180;58740;50.672;18.690;2023-10-08T11:09:48;99531.40;;;12.40
71081;BMP180;58740;50.672;18.690;2023-10-08T11:12:14;99533.40;;;12.40
71081;BMP180;58740;50.672;18.690;2023-10-08T11:14:47;99528.60;;;12.40
71081;BMP180;58740;50.672;18.690;2023-10-08T11:17:16;99527.40;;;12.40
71081;BMP180;58740;50.672;18.690;2023-10-08T11:19:44;99530.00;;;12.50
71081;BMP180;58740;50.672;18.690;2023-10-08T11:22:13;99527.20;;;12.50
71081;BMP180;58740;50.672;18.690;2023-10-08T11:24:44;99532.00;;;12.44
71081;BMP180;58740;50.672;18.690;2023-10-08T11:27:17;99522.80;;;12.40
71081;BMP180;58740;50.672;18.690;2023-10-08T11:29:56;99517.60;;;12.40
71081;BMP180;58740;50.672;18.690;2023-10-08T11:32:25;99509.20;;;12.30
71081;BMP180;58740;50.672;18.690;2023-10-08T11:34:58;99516.20;;;12.30
71081;BMP180;58740;50.672;18.690;2023-10-08T11:37:46;99511.20;;;12.20
71081;BMP180;58740;50.672;18.690;2023-10-08T11:40:24;99512.20;;;12.20
71081;BMP180;58740;50.672;18.690;2023-10-08T11:43:15;99514.60;;;12.20
71081;BMP180;58740;50.672;18.690;2023-10-08T11:45:45;99519.60;;;12.20
71081;BMP180;58740;50.672;18.690;2023-10-08T11:48:18;99518.00;;;12.20
71081;BMP180;58740;50.672;18.690;2023-10-08T11:50:52;99520.00;;;12.20
71081;BMP180;58740;50.672;18.690;2023-10-08T11:53:19;99515.40;;;12.28
71081;BMP180;58740;50.672;18.690;2023-10-08T11:55:45;99527.40;;;12.30
71081;BMP180;58740;50.672;18.690;2023-10-08T11:58:14;99524.00;;;12.36
71081;BMP180;58740;50.672;18.690;2023-10-08T12:00:46;99526.00;;;12.40
71081;BMP180;58740;50.672;18.690;2023-10-08T12:03:18;99528.20;;;12.40
71081;BMP180;58740;50.672;18.690;2023-10-08T12:05:46;99521.80;;;12.40
71081;BMP180;58740;50.672;18.690;2023-10-08T12:08:19;99519.80;;;12.40
71081;BMP180;58740;50.672;18.690;2023-10-08T12:10:48;99524.00;;;12.40
71081;BMP180;58740;50.672;18.690;2023-10-08T12:13:20;99530.40;;;12.40
71081;BMP180;58740;50.672;18.690;2023-10-08T12:15:55;99544.60;;;12.40
71081;BMP180;58740;50.672;18.690;2023-10-08T12:18:45;99540.00;;;12.42
71081;BMP180;58740;50.672;18.690;2023-10-08T12:21:15;99533.80;;;12.44
71081;BMP180;58740;50.672;18.690;2023-10-08T12:23:43;99540.60;;;12.46
71081;BMP180;58740;50.672;18.690;2023-10-08T12:26:13;99543.60;;;12.50
71081;BMP180;58740;50.672;18.690;2023-10-08T12:28:46;99539.80;;;12.50
71081;BMP180;58740;50.672;18.690;2023-10-08T12:31:18;99542.20;;;12.50
71081;BMP180;58740;50.672;18.690;2023-10-08T12:33:49;99528.20;;;12.46
71081;BMP180;58740;50.672;18.690;2023-10-08T12:36:21;99536.00;;;12.40
71081;BMP180;58740;50.672;18.690;2023-10-08T12:38:50;99533.80;;;12.40
71081;BMP180;58740;50.672;18.690;2023-10-08T12:41:25;99540.40;;;12.40
71081;BMP180;58740;50.672;18.690;2023-10-08T12:43:53;99548.80;;;12.40
71081;BMP180;58740;50.672;18.690;2023-10-08T12:46:21;99540.40;;;12.40
71081;BMP180;58740;50.672;18.690;2023-10-08T12:48:53;99539.80;;;12.46
71081;BMP180;58740;50.672;18.690;2023-10-08T12:51:22;99538.20;;;12.50
71081;BMP180;58740;50.672;18.690;2023-10-08T12:53:54;99544.20;;;12.50
71081;BMP180;58740;50.672;18.690;2023-10-08T12:56:47;99543.60;;;12.50
71081;BMP180;58740;50.672;18.690;2023-10-08T12:59:21;99544.80;;;12.50
71081;BMP180;58740;50.672;18.690;2023-10-08T13:01:48;99550.80;;;12.50
71081;BMP180;58740;50.672;18.690;2023-10-08T13:04:20;99554.20;;;12.42
71081;BMP180;58740;50.672;18.690;2023-10-08T13:06:56;99557.20;;;12.42
71081;BMP180;58740;50.672;18.690;2023-10-08T13:09:24;99563.20;;;12.40
71081;BMP180;58740;50.672;18.690;2023-10-08T13:11:51;99569.00;;;12.40
71081;BMP180;58740;50.672;18.690;2023-10-08T13:14:18;99575.20;;;12.40
71081;BMP180;58740;50.672;18.690;2023-10-08T13:16:44;99574.40;;;12.40
71081;BMP180;58740;50.672;18.690;2023-10-08T13:19:11;99568.00;;;12.40
71081;BMP180;58740;50.672;18.690;2023-10-08T13:21:37;99575.80;;;12.30
71081;BMP180;58740;50.672;18.690;2023-10-08T13:24:05;99579.00;;;12.30
71081;BMP180;58740;50.672;18.690;2023-10-08T13:26:39;99582.80;;;12.22
71081;BMP180;58740;50.672;18.690;2023-10-08T13:29:06;99585.20;;;12.20
71081;BMP180;58740;50.672;18.690;2023-10-08T13:31:35;99582.40;;;12.20
71081;BMP180;58740;50.672;18.690;2023-10-08T13:34:05;99584.60;;;12.30
71081;BMP180;58740;50.672;18.690;2023-10-08T13:36:36;99592.00;;;12.30
71081;BMP180;58740;50.672;18.690;2023-10-08T13:39:06;99598.00;;;12.34
71081;BMP180;58740;50.672;18.690;2023-10-08T13:41:39;99593.80;;;12.40
71081;BMP180;58740;50.672;18.690;2023-10-08T13:44:07;99598.20;;;12.40
71081;BMP180;58740;50.672;18.690;2023-10-08T13:46:34;99607.40;;;12.40
71081;BMP180;58740;50.672;18.690;2023-10-08T13:49:04;99603.20;;;12.40
71081;BMP180;58740;50.672;18.690;2023-10-08T13:51:32;99599.40;;;12.40
71081;BMP180;58740;50.672;18.690;2023-10-08T13:54:01;99609.40;;;12.38
71081;BMP180;58740;50.672;18.690;2023-10-08T13:56:29;99611.20;;;12.30
71081;BMP180;58740;50.672;18.690;2023-10-08T13:59:01;99614.00;;;12.30
71081;BMP180;58740;50.672;18.690;2023-10-08T14:01:40;99617.00;;;12.30
71081;BMP180;58740;50.672;18.690;2023-10-08T14:04:13;99617.20;;;12.30
71081;BMP180;58740;50.672;18.690;2023-10-08T14:06:46;99621.80;;;12.20
71081;BMP180;58740;50.672;18.690;2023-10-08T14:09:21;99620.80;;;12.20
71081;BMP180;58740;50.672;18.690;2023-10-08T14:12:08;99627.40;;;12.10
71081;BMP180;58740;50.672;18.690;2023-10-08T14:14:36;99624.60;;;12.10
71081;BMP180;58740;50.672;18.690;2023-10-08T14:17:07;99628.20;;;12.10
71081;BMP180;58740;50.672;18.690;2023-10-08T14:19:38;99628.80;;;12.06
71081;BMP180;58740;50.672;18.690;2023-10-08T14:22:13;99620.40;;;12.00
71081;BMP180;58740;50.672;18.690;2023-10-08T14:24:45;99628.40;;;12.00
71081;BMP180;58740;50.672;18.690;2023-10-08T14:27:13;99624.80;;;12.00